Time;durP1;ratioP1;P1;durP2;ratioP2;P2;SDS_P1;SDS_P2;PMS_P1;PMS_P2;Temp;Humidity;BMP_temperature;BMP_pressure;BME280_temperature;BME280_humidity;BME280_pressure;Samples;Min_cycle;Max_cycle;Signal;HPM_P1;HPM_P2
2021/11/20 00:00:51;;;;;;;4.90;4.40;;;;;;;7.20;76.73;94500.30;1680207;83;21192;-62
2021/11/20 00:03:17;;;;;;;6.42;5.65;;;;;;;7.24;76.33;94514.64;1695217;83;21112;-62
2021/11/20 00:05:55;;;;;;;7.00;5.40;;;;;;;7.27;75.96;94514.36;1681297;83;21466;-60
2021/11/20 00:08:20;;;;;;;8.00;6.20;;;;;;;7.29;75.52;94518.80;1691990;83;21778;-61
2021/11/20 00:10:50;;;;;;;6.75;4.78;;;;;;;7.31;75.28;94517.79;1645647;84;21486;-61
2021/11/20 00:13:19;;;;;;;4.42;4.03;;;;;;;7.34;75.08;94518.29;1683997;83;21466;-62
2021/11/20 00:15:49;;;;;;;6.97;6.20;;;;;;;7.35;74.84;94519.20;1682258;83;21522;-63
2021/11/20 00:18:17;;;;;;;4.65;4.25;;;;;;;7.37;74.79;94525.02;1705932;83;21073;-61
2021/11/20 00:20:48;;;;;;;5.20;4.15;;;;;;;7.41;74.64;94524.34;1701117;83;21165;-61
2021/11/20 00:23:20;;;;;;;3.70;3.40;;;;;;;7.43;74.59;94526.05;1688036;83;21069;-61
2021/11/20 00:25:51;;;;;;;4.90;3.72;;;;;;;7.49;74.51;94519.45;1701073;83;21022;-62
2021/11/20 00:28:29;;;;;;;3.80;3.50;;;;;;;7.54;74.54;94525.14;1697039;83;20975;-61
2021/11/20 00:30:57;;;;;;;3.90;3.60;;;;;;;7.59;74.40;94532.84;1684646;83;21524;-62
2021/11/20 00:33:27;;;;;;;5.87;3.92;;;;;;;7.61;74.24;94529.07;1691900;83;21182;-62
2021/11/20 00:35:55;;;;;;;4.27;3.87;;;;;;;7.61;74.24;94526.33;1697281;83;21085;-61
2021/11/20 00:38:22;;;;;;;4.10;3.70;;;;;;;7.60;74.20;94524.80;1651356;84;21282;-61
2021/11/20 00:40:58;;;;;;;4.58;3.75;;;;;;;7.60;74.26;94523.43;1702313;83;20974;-62
2021/11/20 00:43:25;;;;;;;5.58;5.05;;;;;;;7.63;74.12;94516.30;1699572;83;21059;-61
2021/11/20 00:45:52;;;;;;;4.62;4.08;;;;;;;7.64;74.01;94504.14;1681961;83;21243;-61
2021/11/20 00:48:21;;;;;;;4.00;3.62;;;;;;;7.68;73.83;94504.22;1700417;83;20982;-62
2021/11/20 00:50:53;;;;;;;4.72;4.28;;;;;;;7.70;73.43;94511.39;1696195;83;20990;-61
2021/11/20 00:53:19;;;;;;;4.78;4.28;;;;;;;7.73;73.49;94506.41;1701933;83;21198;-62
2021/11/20 00:55:47;;;;;;;4.25;3.85;;;;;;;7.78;73.31;94504.53;1690293;83;21065;-60
2021/11/20 00:58:14;;;;;;;4.85;4.40;;;;;;;7.81;73.03;94503.66;1705758;83;21226;-60
2021/11/20 01:00:48;;;;;;;4.47;4.08;;;;;;;7.84;72.90;94500.05;1656801;84;21403;-60
2021/11/20 01:03:15;;;;;;;5.62;3.72;;;;;;;7.86;72.87;94493.53;1694193;83;21002;-61
2021/11/20 01:05:42;;;;;;;3.20;3.00;;;;;;;7.90;72.76;94492.81;1704035;83;20971;-60
2021/11/20 01:08:11;;;;;;;4.20;3.37;;;;;;;7.94;72.51;94498.98;1672595;84;20963;-60
2021/11/20 01:10:42;;;;;;;4.30;3.90;;;;;;;7.94;72.47;94494.88;1679802;83;21099;-60
2021/11/20 01:13:09;;;;;;;4.40;4.00;;;;;;;7.95;72.31;94492.89;1663231;84;21415;-61
2021/11/20 01:15:40;;;;;;;3.75;3.45;;;;;;;7.93;72.13;94487.08;1688616;83;21018;-60
2021/11/20 01:18:10;;;;;;;4.40;4.00;;;;;;;7.93;72.20;94485.72;1697951;83;20959;-61
2021/11/20 01:20:40;;;;;;;5.20;4.70;;;;;;;7.92;72.19;94483.56;1698887;83;21433;-60
2021/11/20 01:23:07;;;;;;;4.03;3.62;;;;;;;7.92;72.23;94489.04;1684239;84;21518;-61
2021/11/20 01:25:42;;;;;;;5.53;4.70;;;;;;;7.94;72.04;94483.92;1705039;83;21015;-61
2021/11/20 01:28:25;;;;;;;5.53;4.53;;;;;;;7.94;72.03;94477.08;1703388;84;21395;-61
2021/11/20 01:30:57;;;;;;;5.90;4.90;;;;;;;7.96;72.15;94476.03;1684765;83;21058;-58
2021/11/20 01:33:25;;;;;;;6.83;5.60;;;;;;;7.97;72.07;94469.34;1694660;83;21069;-62
2021/11/20 01:35:52;;;;;;;7.75;6.00;;;;;;;7.97;71.97;94466.61;1683597;83;23342;-60
2021/11/20 01:38:20;;;;;;;5.75;4.60;;;;;;;7.98;71.95;94466.77;1676786;83;21066;-58
2021/11/20 01:40:47;;;;;;;5.35;4.47;;;;;;;7.98;71.88;94462.66;1661945;83;21434;-61
2021/11/20 01:43:15;;;;;;;5.15;4.65;;;;;;;7.97;71.64;94458.39;1688273;83;21097;-61
2021/11/20 01:46:00;;;;;;;4.78;4.17;;;;;;;7.96;71.62;94448.64;1705139;83;20966;-61
2021/11/20 01:49:02;;;;;;;5.83;5.22;;;;;;;7.89;71.67;94447.47;1694974;83;21249;-60
2021/11/20 01:51:37;;;;;;;13.05;8.80;;;;;;;7.81;71.83;94453.00;1662042;84;21065;-61
2021/11/20 01:54:36;;;;;;;10.45;7.47;;;;;;;7.75;72.21;94453.97;1698126;83;21148;-60
2021/11/20 01:57:38;;;;;;;9.53;6.47;;;;;;;7.68;72.39;94456.31;1699686;83;21148;-59
2021/11/20 02:00:34;;;;;;;9.68;7.25;;;;;;;7.58;72.64;94446.45;1683586;83;21636;-60
2021/11/20 02:03:26;;;;;;;10.43;6.92;;;;;;;7.51;72.85;94445.88;1662612;83;21150;-60
2021/11/20 02:05:59;;;;;;;6.03;4.87;;;;;;;7.45;73.12;94444.28;1704374;83;21038;-61
2021/11/20 02:09:14;;;;;;;4.62;4.17;;;;;;;7.43;73.13;94439.84;1704831;83;21580;-60
2021/11/20 02:11:53;;;;;;;4.60;4.20;;;;;;;7.43;72.99;94426.75;1699517;83;21144;-61
2021/11/20 02:14:21;;;;;;;4.75;4.30;;;;;;;7.37;72.98;94419.67;1694724;83;21010;-61
2021/11/20 02:16:58;;;;;;;4.78;4.25;;;;;;;7.31;73.10;94414.57;1704285;83;21042;-61
2021/11/20 02:19:35;;;;;;;5.78;5.28;;;;;;;7.24;73.28;94410.68;1699179;83;21030;-63
2021/11/20 02:22:28;;;;;;;4.87;4.47;;;;;;;7.21;73.42;94412.92;1701809;83;20947;-61
2021/11/20 02:24:55;;;;;;;4.05;3.75;;;;;;;7.18;73.56;94413.77;1682107;83;20974;-60
2021/11/20 02:27:24;;;;;;;4.30;4.00;;;;;;;7.18;73.67;94415.13;1671454;84;21042;-60
2021/11/20 02:30:32;;;;;;;5.17;4.10;;;;;;;7.25;73.57;94395.02;1686750;83;21836;-61
2021/11/20 02:33:21;;;;;;;9.35;6.70;;;;;;;7.34;73.31;94391.06;1702531;83;21459;-60
2021/11/20 02:35:56;;;;;;;8.50;7.10;;;;;;;7.42;72.97;94391.79;1637835;84;20998;-59
2021/11/20 02:38:30;;;;;;;6.77;6.03;;;;;;;7.43;72.79;94396.06;1702217;83;21002;-59
2021/11/20 02:40:58;;;;;;;8.70;7.50;;;;;;;7.43;72.59;94389.80;1688750;83;21023;-61
2021/11/20 02:43:26;;;;;;;4.00;3.70;;;;;;;7.48;72.20;94405.09;1697138;83;21250;-61
2021/11/20 02:45:56;;;;;;;7.17;6.55;;;;;;;7.59;72.07;94405.56;1679047;83;21023;-60
2021/11/20 02:48:23;;;;;;;3.90;3.60;;;;;;;7.64;71.92;94400.91;1699964;83;21069;-60
2021/11/20 02:50:59;;;;;;;3.27;3.08;;;;;;;7.62;71.83;94410.16;1698793;83;21553;-59
2021/11/20 02:53:31;;;;;;;3.22;3.02;;;;;;;7.56;71.81;94408.39;1693281;82;21499;-58
2021/11/20 02:55:58;;;;;;;4.95;4.50;;;;;;;7.53;71.87;94410.02;1667070;84;21922;-60
2021/11/20 02:58:27;;;;;;;3.50;3.30;;;;;;;7.49;72.00;94414.08;1697468;83;21030;-61
2021/11/20 03:00:58;;;;;;;3.75;3.45;;;;;;;7.46;72.06;94415.70;1693720;83;21609;-60
2021/11/20 03:03:25;;;;;;;3.30;3.10;;;;;;;7.43;72.13;94419.91;1682315;83;21002;-59
2021/11/20 03:05:52;;;;;;;3.30;3.10;;;;;;;7.39;72.22;94417.30;1704051;83;21011;-60
2021/11/20 03:08:19;;;;;;;3.58;3.30;;;;;;;7.36;72.33;94422.23;1687454;83;21165;-59
2021/11/20 03:10:46;;;;;;;6.37;4.72;;;;;;;7.32;72.35;94418.84;1703846;83;21137;-60
2021/11/20 03:13:14;;;;;;;4.50;4.12;;;;;;;7.26;72.45;94407.49;1706028;83;21097;-61
2021/11/20 03:15:41;;;;;;;4.67;4.28;;;;;;;7.20;72.60;94405.91;1690953;83;21010;-62
2021/11/20 03:18:08;;;;;;;5.15;4.65;;;;;;;7.14;72.86;94404.89;1695452;83;21081;-63
2021/11/20 03:20:35;;;;;;;5.55;5.05;;;;;;;7.08;73.08;94406.63;1698425;83;21043;-61
2021/11/20 03:23:07;;;;;;;10.32;9.20;;;;;;;7.06;73.20;94393.83;1698593;83;21414;-61
2021/11/20 03:25:34;;;;;;;11.25;9.68;;;;;;;7.04;73.26;94396.23;1711222;83;21006;-61
2021/11/20 03:28:01;;;;;;;7.30;6.67;;;;;;;7.02;73.31;94390.41;1693474;83;20987;-61
2021/11/20 03:30:29;;;;;;;3.65;3.40;;;;;;;7.01;73.34;94386.13;1683326;83;21175;-60
2021/11/20 03:32:56;;;;;;;4.37;3.98;;;;;;;7.03;73.19;94398.19;1691907;83;21087;-61
2021/11/20 03:35:24;;;;;;;3.92;3.67;;;;;;;7.11;73.07;94404.39;1694667;83;21062;-61
2021/11/20 03:37:53;;;;;;;3.90;3.60;;;;;;;7.15;72.96;94394.73;1700742;83;21633;-61
2021/11/20 03:40:20;;;;;;;3.80;3.58;;;;;;;7.19;72.73;94406.33;1675702;83;21620;-62
2021/11/20 03:42:49;;;;;;;3.58;3.27;;;;;;;7.29;72.39;94395.09;1695573;83;21583;-62
2021/11/20 03:45:18;;;;;;;3.60;3.40;;;;;;;7.39;72.09;94402.24;1681582;83;21175;-61
2021/11/20 03:47:46;;;;;;;3.70;3.40;;;;;;;7.44;71.91;94401.70;1711712;83;21498;-61
2021/11/20 03:50:14;;;;;;;3.30;3.10;;;;;;;7.48;71.75;94411.93;1703870;83;21093;-64
2021/11/20 03:52:42;;;;;;;4.00;3.70;;;;;;;7.56;71.48;94405.03;1689701;83;20990;-61
2021/11/20 03:55:12;;;;;;;3.45;3.22;;;;;;;7.63;71.18;94402.69;1697263;83;20975;-62
2021/11/20 03:57:39;;;;;;;3.40;3.20;;;;;;;7.71;70.79;94402.05;1653955;84;21207;-61
2021/11/20 04:00:09;;;;;;;3.10;2.90;;;;;;;7.76;70.42;94395.27;1686892;83;21030;-62
2021/11/20 04:02:37;;;;;;;3.10;2.90;;;;;;;7.83;70.03;94399.93;1686890;83;21022;-61
2021/11/20 04:05:06;;;;;;;4.12;3.83;;;;;;;7.90;69.67;94404.43;1669308;84;21015;-61
2021/11/20 04:07:33;;;;;;;3.70;3.40;;;;;;;7.98;69.49;94395.56;1708520;83;21017;-61
2021/11/20 04:09:59;;;;;;;3.98;3.65;;;;;;;8.06;69.36;94411.17;1691274;83;21168;-62
2021/11/20 04:12:26;;;;;;;4.28;3.87;;;;;;;8.07;69.21;94403.87;1709656;83;21011;-61
2021/11/20 04:14:53;;;;;;;3.98;3.67;;;;;;;8.11;68.95;94407.26;1679522;84;21502;-62
2021/11/20 04:17:21;;;;;;;3.40;3.20;;;;;;;8.14;68.95;94396.03;1683155;83;21089;-63
2021/11/20 04:19:49;;;;;;;3.80;3.50;;;;;;;8.14;68.88;94389.19;1683520;83;21145;-62
2021/11/20 04:22:16;;;;;;;3.52;3.22;;;;;;;8.12;68.93;94395.12;1708175;83;21167;-62
2021/11/20 04:24:44;;;;;;;3.72;3.42;;;;;;;8.12;68.92;94391.59;1702765;83;21069;-65
2021/11/20 04:27:15;;;;;;;3.37;3.12;;;;;;;8.12;68.93;94391.01;1712955;83;21529;-61
2021/11/20 04:29:55;;;;;;;3.45;3.25;;;;;;;8.15;68.98;94407.16;1619860;83;21482;-62
2021/11/20 04:32:23;;;;;;;3.25;3.05;;;;;;;8.16;68.91;94414.16;1695732;83;21021;-60
2021/11/20 04:34:50;;;;;;;3.90;3.60;;;;;;;8.17;68.93;94405.52;1691225;83;21183;-62
2021/11/20 04:37:17;;;;;;;4.12;3.65;;;;;;;8.17;68.96;94394.56;1699137;83;21221;-63
2021/11/20 04:39:44;;;;;;;3.60;3.40;;;;;;;8.13;69.00;94400.77;1687068;83;21070;-64
2021/11/20 04:42:11;;;;;;;9.60;5.72;;;;;;;8.08;69.13;94390.33;1698123;83;20990;-64
2021/11/20 04:44:38;;;;;;;4.75;4.28;;;;;;;8.06;69.30;94380.42;1702639;83;21041;-62
2021/11/20 04:47:05;;;;;;;4.90;4.10;;;;;;;8.07;69.36;94379.83;1698130;83;22362;-64
2021/11/20 04:49:32;;;;;;;4.30;4.00;;;;;;;8.07;69.35;94388.80;1678095;83;21062;-61
2021/11/20 04:51:58;;;;;;;5.20;4.70;;;;;;;8.04;69.37;94388.31;1693214;83;21006;-61
2021/11/20 04:54:27;;;;;;;5.78;5.20;;;;;;;8.00;69.52;94390.41;1707603;83;21003;-63
2021/11/20 04:56:54;;;;;;;6.90;6.00;;;;;;;7.95;69.66;94381.38;1700974;83;21105;-62
2021/11/20 04:59:21;;;;;;;5.78;5.12;;;;;;;7.90;69.82;94380.53;1703188;83;21152;-63
2021/11/20 05:01:48;;;;;;;6.15;5.10;;;;;;;7.86;69.94;94379.13;1671490;85;21520;-63
2021/11/20 05:04:14;;;;;;;5.28;4.78;;;;;;;7.81;70.13;94385.13;1699505;83;20974;-63
2021/11/20 05:06:42;;;;;;;5.03;4.62;;;;;;;7.76;70.34;94381.58;1684411;83;20971;-62
2021/11/20 05:09:09;;;;;;;4.75;4.35;;;;;;;7.77;70.47;94391.33;1691610;83;20995;-62
2021/11/20 05:11:38;;;;;;;4.47;4.08;;;;;;;7.79;70.56;94384.22;1697370;83;21176;-62
2021/11/20 05:14:05;;;;;;;4.47;4.10;;;;;;;7.86;70.52;94386.73;1696673;83;21079;-63
2021/11/20 05:16:31;;;;;;;4.30;3.90;;;;;;;7.91;70.43;94383.44;1699620;83;20975;-62
2021/11/20 05:18:58;;;;;;;4.72;4.22;;;;;;;7.95;70.36;94380.01;1696489;83;20954;-61
2021/11/20 05:21:27;;;;;;;8.75;5.97;;;;;;;7.94;70.34;94374.37;1694178;83;21058;-62
2021/11/20 05:23:54;;;;;;;8.13;5.28;;;;;;;7.92;70.38;94383.59;1703956;83;21176;-63
2021/11/20 05:26:21;;;;;;;18.15;11.88;;;;;;;7.90;70.45;94392.86;1705996;83;20971;-62
2021/11/20 05:29:06;;;;;;;14.80;9.48;;;;;;;7.91;70.55;94388.91;1701660;83;21299;-62
2021/11/20 05:31:30;;;;;;;7.45;6.65;;;;;;;7.92;70.57;94397.91;1688366;83;21511;-60
2021/11/20 05:33:56;;;;;;;5.37;4.90;;;;;;;7.92;70.60;94395.92;1690873;83;21074;-61
2021/11/20 05:36:30;;;;;;;5.10;4.70;;;;;;;7.93;70.57;94396.11;1707269;83;21181;-61
2021/11/20 05:38:52;;;;;;;4.92;4.50;;;;;;;7.94;70.60;94414.08;1699187;83;21002;-60
2021/11/20 05:41:19;;;;;;;8.20;5.10;;;;;;;7.94;70.61;94410.56;1680443;83;21132;-60
2021/11/20 05:43:48;;;;;;;8.38;6.30;;;;;;;7.96;70.60;94401.30;1690586;83;20987;-61
2021/11/20 05:46:21;;;;;;;14.73;10.98;;;;;;;7.98;70.58;94419.43;1702072;83;21405;-61
2021/11/20 05:48:49;;;;;;;10.58;7.97;;;;;;;7.98;70.59;94421.58;1694581;83;21153;-60
2021/11/20 05:51:18;;;;;;;9.75;6.37;;;;;;;8.01;70.61;94421.28;1688596;83;21034;-62
2021/11/20 05:53:44;;;;;;;9.85;6.12;;;;;;;8.02;70.66;94420.86;1685380;83;21722;-61
2021/11/20 05:56:12;;;;;;;6.45;5.80;;;;;;;8.03;70.64;94421.64;1686767;83;21093;-61
2021/11/20 05:58:40;;;;;;;7.47;5.95;;;;;;;8.04;70.64;94412.22;1702128;83;21010;-61
2021/11/20 06:01:11;;;;;;;8.35;6.20;;;;;;;8.07;70.63;94419.55;1696852;83;21172;-62
2021/11/20 06:03:38;;;;;;;8.95;6.12;;;;;;;8.08;70.50;94414.23;1656203;84;20970;-62
2021/11/20 06:06:05;;;;;;;11.40;7.50;;;;;;;8.09;70.47;94430.22;1696649;83;21046;-62
2021/11/20 06:08:33;;;;;;;10.98;7.25;;;;;;;8.14;70.38;94442.02;1687232;83;21092;-61
2021/11/20 06:11:01;;;;;;;8.50;7.20;;;;;;;8.20;70.42;94455.94;1698080;83;21466;-61
2021/11/20 06:13:31;;;;;;;12.28;8.13;;;;;;;8.27;70.40;94461.22;1686164;83;21240;-61
2021/11/20 06:16:06;;;;;;;10.45;7.22;;;;;;;8.31;70.28;94465.39;1657731;84;21062;-62
2021/11/20 06:18:34;;;;;;;8.90;6.37;;;;;;;8.34;70.28;94453.55;1694609;83;21039;-62
2021/11/20 06:21:04;;;;;;;5.60;5.05;;;;;;;8.37;70.15;94454.03;1690650;83;21410;-62
2021/11/20 06:23:33;;;;;;;16.57;9.88;;;;;;;8.40;69.76;94460.00;1680109;83;21060;-62
2021/11/20 06:26:04;;;;;;;6.83;5.08;;;;;;;8.45;69.67;94464.92;1696298;83;21840;-61
2021/11/20 06:28:30;;;;;;;6.08;5.47;;;;;;;8.49;69.20;94476.57;1697366;83;21076;-60
2021/11/20 06:30:59;;;;;;;6.42;5.50;;;;;;;8.55;69.10;94476.17;1689001;83;21089;-63
2021/11/20 06:33:26;;;;;;;7.25;6.15;;;;;;;8.64;68.87;94483.73;1684089;83;21160;-62
2021/11/20 06:35:56;;;;;;;4.97;4.42;;;;;;;8.68;68.82;94493.97;1700344;83;21121;-62
2021/11/20 06:38:26;;;;;;;4.85;4.45;;;;;;;8.72;68.08;94483.06;1693571;83;21332;-63
2021/11/20 06:40:55;;;;;;;7.97;6.47;;;;;;;8.78;68.00;94489.52;1671991;83;21042;-62
2021/11/20 06:43:24;;;;;;;20.57;14.80;;;;;;;8.83;67.82;94497.17;1695217;83;20990;-62
2021/11/20 06:45:55;;;;;;;27.30;18.80;;;;;;;8.87;67.63;94490.99;1703290;83;21561;-62
2021/11/20 06:48:22;;;;;;;15.58;10.15;;;;;;;8.90;67.55;94488.73;1690253;83;21061;-62
2021/11/20 06:50:52;;;;;;;17.12;14.03;;;;;;;8.90;67.47;94479.88;1697568;83;21230;-62
2021/11/20 06:53:38;;;;;;;24.60;16.90;;;;;;;8.93;67.34;94485.88;1669828;83;20975;-63
2021/11/20 06:56:28;;;;;;;13.68;9.75;;;;;;;8.95;67.36;94475.82;1690004;83;21339;-61
2021/11/20 06:59:16;;;;;;;7.47;6.08;;;;;;;9.01;67.03;94478.16;1662220;84;21434;-63
2021/11/20 07:01:40;;;;;;;5.50;5.00;;;;;;;9.06;67.16;94487.22;1666805;84;20971;-62
2021/11/20 07:04:15;;;;;;;6.35;5.50;;;;;;;9.11;66.52;94491.52;1676091;83;21078;-63
2021/11/20 07:06:52;;;;;;;6.00;5.50;;;;;;;9.15;66.29;94492.77;1690617;83;20977;-62
2021/11/20 07:09:19;;;;;;;4.97;4.47;;;;;;;9.17;66.29;94485.64;1663850;85;21023;-62
2021/11/20 07:11:47;;;;;;;4.95;4.45;;;;;;;9.19;66.29;94477.73;1693467;84;21089;-62
2021/11/20 07:14:14;;;;;;;4.50;4.10;;;;;;;9.23;66.30;94481.73;1696094;83;21057;-62
2021/11/20 07:16:43;;;;;;;4.60;4.20;;;;;;;9.26;65.87;94484.95;1695464;83;21186;-62
2021/11/20 07:19:10;;;;;;;6.83;5.72;;;;;;;9.28;66.02;94489.39;1689700;83;20967;-62
2021/11/20 07:21:56;;;;;;;5.40;4.87;;;;;;;9.29;66.06;94486.19;1695874;83;21050;-63
2021/11/20 07:24:37;;;;;;;10.28;8.73;;;;;;;9.29;65.88;94497.16;1648809;83;21058;-64
2021/11/20 07:27:05;;;;;;;14.85;13.40;;;;;;;9.35;65.80;94502.86;1635420;83;21534;-62
2021/11/20 15:25:47;;;;;;;25.05;18.57;;;;;;;7.75;59.47;94583.45;1698169;83;20989;-59
2021/11/20 15:28:14;;;;;;;21.93;18.12;;;;;;;7.67;59.80;94590.30;1693783;83;21009;-59
2021/11/20 15:30:42;;;;;;;26.90;16.48;;;;;;;7.60;60.48;94591.86;1696541;83;21158;-58
2021/11/20 15:33:10;;;;;;;27.52;17.80;;;;;;;7.52;60.70;94594.60;1701158;83;20987;-61
2021/11/20 15:35:38;;;;;;;35.15;21.25;;;;;;;7.46;60.91;94599.07;1712962;83;22186;-59
2021/11/20 15:38:05;;;;;;;24.60;17.48;;;;;;;7.39;61.23;94603.37;1699305;83;21495;-59
2021/11/20 15:40:34;;;;;;;23.77;17.95;;;;;;;7.32;61.42;94610.38;1711218;83;21020;-60
2021/11/20 15:43:02;;;;;;;25.97;19.25;;;;;;;7.25;61.69;94611.93;1678809;83;21188;-58
2021/11/20 15:45:32;;;;;;;22.48;15.58;;;;;;;7.19;62.02;94619.09;1667399;83;21112;-58
2021/11/20 15:47:59;;;;;;;18.92;14.35;;;;;;;7.14;62.36;94616.12;1692762;83;21130;-59
2021/11/20 15:50:25;;;;;;;26.48;16.20;;;;;;;7.09;62.63;94624.24;1705346;83;21533;-58
2021/11/20 15:52:52;;;;;;;23.30;18.70;;;;;;;7.05;62.82;94617.31;1691478;83;21115;-59
2021/11/20 15:55:19;;;;;;;21.35;14.50;;;;;;;7.01;63.13;94624.05;1680798;83;21105;-59
2021/11/20 15:57:47;;;;;;;25.40;15.48;;;;;;;6.97;63.49;94622.79;1691812;83;21028;-57
2021/11/20 16:00:20;;;;;;;22.30;16.32;;;;;;;6.95;63.57;94623.81;1704404;83;21491;-57
2021/11/20 16:02:50;;;;;;;21.02;15.65;;;;;;;6.95;63.79;94633.97;1706400;83;20977;-58
2021/11/20 16:05:18;;;;;;;19.87;13.98;;;;;;;6.94;63.97;94637.91;1694244;83;21456;-58
2021/11/20 16:07:50;;;;;;;20.32;16.50;;;;;;;6.92;63.89;94638.94;1695068;83;21189;-58
2021/11/20 16:10:19;;;;;;;21.50;15.72;;;;;;;6.89;63.99;94632.95;1680405;83;21095;-63
2021/11/20 16:12:46;;;;;;;30.62;19.07;;;;;;;6.85;64.17;94636.38;1701092;83;20977;-58
2021/11/20 16:15:15;;;;;;;25.00;16.67;;;;;;;6.81;64.27;94642.50;1674139;83;21225;-62
2021/11/20 16:17:44;;;;;;;36.90;25.77;;;;;;;6.75;64.30;94642.84;1653714;83;20964;-60
2021/11/20 16:20:17;;;;;;;28.32;21.27;;;;;;;6.69;64.61;94640.45;1684566;83;21001;-59
2021/11/20 16:22:46;;;;;;;26.80;18.27;;;;;;;6.66;64.92;94648.13;1680131;83;21090;-60
2021/11/20 16:25:13;;;;;;;24.90;17.15;;;;;;;6.60;65.13;94644.34;1706392;83;21475;-61
2021/11/20 16:27:41;;;;;;;25.92;18.10;;;;;;;6.56;65.27;94642.28;1689071;83;21087;-59
2021/11/20 16:30:11;;;;;;;23.92;16.02;;;;;;;6.56;65.40;94642.28;1695225;83;20999;-59
2021/11/20 16:32:40;;;;;;;23.38;14.90;;;;;;;6.54;65.59;94634.50;1699735;83;21547;-58
2021/11/20 16:35:08;;;;;;;22.52;14.45;;;;;;;6.53;65.79;94645.26;1685680;84;20988;-58
2021/11/20 16:37:36;;;;;;;18.80;13.70;;;;;;;6.55;65.81;94644.84;1694548;83;20969;-60
2021/11/20 16:40:06;;;;;;;19.50;12.80;;;;;;;6.57;65.75;94639.14;1689298;83;20968;-57
2021/11/20 16:42:33;;;;;;;24.77;17.15;;;;;;;6.61;65.71;94643.14;1689122;83;21499;-58
2021/11/20 16:45:04;;;;;;;23.45;14.90;;;;;;;6.63;65.59;94640.75;1690655;83;21196;-57
2021/11/20 16:47:31;;;;;;;19.87;15.18;;;;;;;6.62;65.60;94637.85;1691748;83;21064;-59
2021/11/20 16:49:58;;;;;;;22.60;15.45;;;;;;;6.61;65.84;94647.25;1664949;83;21443;-59
2021/11/20 16:52:27;;;;;;;19.60;14.38;;;;;;;6.57;65.93;94648.70;1669362;84;21040;-59
2021/11/20 16:54:54;;;;;;;21.75;15.70;;;;;;;6.53;66.00;94643.89;1711705;83;21464;-59
2021/11/20 16:57:22;;;;;;;48.42;32.83;;;;;;;6.51;66.25;94644.91;1713370;83;21129;-57
2021/11/20 16:59:51;;;;;;;68.62;40.67;;;;;;;6.48;66.32;94641.67;1703085;83;21479;-57
2021/11/20 17:02:18;;;;;;;53.58;34.98;;;;;;;6.44;66.34;94637.47;1713088;83;21020;-58
2021/11/20 17:04:46;;;;;;;54.42;35.35;;;;;;;6.42;66.46;94635.75;1678326;83;21150;-59
2021/11/20 17:07:13;;;;;;;63.78;39.90;;;;;;;6.40;66.49;94639.51;1689352;83;21595;-57
2021/11/20 17:09:40;;;;;;;185.57;84.72;;;;;;;6.37;66.51;94638.38;1653996;84;21099;-60
2021/11/20 17:12:09;;;;;;;109.37;56.20;;;;;;;6.32;66.54;94634.79;1664219;84;21085;-58
2021/11/20 17:14:36;;;;;;;58.68;35.90;;;;;;;6.28;66.62;94631.95;1685676;83;21249;-58
2021/11/20 17:17:05;;;;;;;49.40;33.18;;;;;;;6.23;66.80;94635.19;1678218;83;21056;-57
2021/11/20 17:19:33;;;;;;;56.63;35.60;;;;;;;6.20;67.00;94633.30;1687949;83;21040;-58
2021/11/20 17:22:02;;;;;;;39.98;24.90;;;;;;;6.19;67.21;94632.52;1693473;83;21163;-57
2021/11/20 17:24:29;;;;;;;44.53;28.50;;;;;;;6.19;67.23;94628.42;1698589;83;21052;-59
2021/11/20 17:26:57;;;;;;;36.53;21.30;;;;;;;6.22;67.38;94629.55;1690231;83;21123;-58
2021/11/20 17:29:25;;;;;;;44.53;26.95;;;;;;;6.24;67.39;94633.99;1675980;83;21602;-59
2021/11/20 17:31:52;;;;;;;46.88;32.30;;;;;;;6.24;67.32;94629.31;1688170;83;21083;-57
2021/11/20 17:34:19;;;;;;;40.83;27.45;;;;;;;6.26;67.35;94636.48;1694406;83;21118;-58
2021/11/20 17:36:46;;;;;;;33.08;20.32;;;;;;;6.26;67.29;94634.34;1668507;83;20964;-61
2021/11/20 17:39:13;;;;;;;35.28;22.73;;;;;;;6.22;67.34;94633.06;1691267;83;21456;-59
2021/11/20 17:41:41;;;;;;;30.08;18.12;;;;;;;6.21;67.41;94628.80;1688864;83;21095;-59
2021/11/20 17:44:09;;;;;;;36.53;17.98;;;;;;;6.19;67.54;94629.78;1701087;83;21712;-60
2021/11/20 17:46:36;;;;;;;27.05;16.90;;;;;;;6.15;67.45;94632.44;1712590;83;21137;-58
2021/11/20 17:49:03;;;;;;;33.73;20.77;;;;;;;6.14;67.63;94632.27;1706923;83;21483;-58
2021/11/20 17:51:31;;;;;;;28.30;19.73;;;;;;;6.10;67.74;94621.98;1691944;83;21048;-58
2021/11/20 17:53:58;;;;;;;29.45;19.23;;;;;;;6.08;67.84;94625.73;1688682;83;20977;-58
2021/11/20 17:56:25;;;;;;;28.15;17.98;;;;;;;6.05;68.03;94625.22;1689363;83;21001;-58
2021/11/20 17:58:53;;;;;;;34.35;22.48;;;;;;;6.03;68.02;94628.97;1689148;83;21915;-59
2021/11/20 18:01:20;;;;;;;28.77;19.90;;;;;;;5.97;68.15;94629.30;1676187;83;21079;-58
2021/11/20 18:03:48;;;;;;;32.35;19.62;;;;;;;5.91;68.46;94624.91;1684465;83;21071;-58
2021/11/20 18:06:15;;;;;;;23.22;15.63;;;;;;;5.89;68.58;94633.34;1685469;83;21525;-59
2021/11/20 18:08:42;;;;;;;20.23;14.05;;;;;;;5.86;68.84;94628.14;1689724;83;21023;-58
2021/11/20 18:11:09;;;;;;;28.42;19.20;;;;;;;5.85;69.05;94632.64;1689376;83;21113;-58
2021/11/20 18:13:38;;;;;;;30.05;20.25;;;;;;;5.83;69.23;94637.14;1683746;83;21586;-58
2021/11/20 18:16:07;;;;;;;26.45;19.02;;;;;;;5.79;69.20;94637.81;1692979;83;21061;-60
2021/11/20 18:18:34;;;;;;;22.70;16.50;;;;;;;5.75;69.45;94632.98;1664965;83;21064;-58
2021/11/20 18:21:02;;;;;;;26.45;18.17;;;;;;;5.71;69.56;94628.78;1703319;83;21048;-57
2021/11/20 18:23:30;;;;;;;28.98;20.05;;;;;;;5.66;69.79;94632.00;1703152;83;21138;-57
2021/11/20 18:25:57;;;;;;;28.55;20.25;;;;;;;5.59;69.91;94628.80;1703221;83;21584;-58
2021/11/20 18:28:25;;;;;;;38.02;26.42;;;;;;;5.55;70.33;94631.41;1690592;83;21048;-59
2021/11/20 18:30:52;;;;;;;29.55;19.20;;;;;;;5.52;70.52;94624.06;1694106;83;21071;-58
2021/11/20 18:33:20;;;;;;;25.23;19.40;;;;;;;5.51;70.52;94629.34;1686694;83;20993;-57
2021/11/20 18:35:47;;;;;;;27.60;20.10;;;;;;;5.49;70.83;94627.05;1693825;83;21135;-58
2021/11/20 18:38:15;;;;;;;25.65;19.32;;;;;;;5.50;70.94;94626.45;1707526;83;21048;-59
2021/11/20 18:40:43;;;;;;;27.90;20.17;;;;;;;5.49;70.98;94629.78;1696431;83;21123;-60
2021/11/20 18:43:11;;;;;;;24.85;18.20;;;;;;;5.46;71.01;94630.59;1678284;83;21594;-59
2021/11/20 18:45:38;;;;;;;26.07;16.20;;;;;;;5.43;71.11;94629.31;1692423;83;20972;-59
2021/11/20 18:48:06;;;;;;;22.17;15.78;;;;;;;5.40;71.32;94621.36;1687338;83;22343;-59
2021/11/20 18:50:33;;;;;;;21.05;14.98;;;;;;;5.40;71.52;94627.42;1690134;83;21023;-60
2021/11/20 18:53:00;;;;;;;26.30;18.50;;;;;;;5.38;71.92;94631.16;1701858;83;21063;-61
2021/11/20 18:55:31;;;;;;;21.07;16.73;;;;;;;5.39;71.92;94621.80;1690706;83;21119;-58
2021/11/20 18:57:57;;;;;;;31.30;21.57;;;;;;;5.38;72.17;94631.16;1705037;83;21142;-58
2021/11/20 19:00:25;;;;;;;22.93;16.32;;;;;;;5.36;72.16;94624.75;1712206;83;21163;-57
2021/11/20 19:02:52;;;;;;;20.72;15.30;;;;;;;5.35;72.35;94621.84;1712309;83;21021;-59
2021/11/20 19:05:19;;;;;;;22.73;16.45;;;;;;;5.33;72.46;94622.08;1712979;83;20980;-58
2021/11/20 19:07:46;;;;;;;31.82;18.90;;;;;;;5.35;72.44;94634.12;1694640;83;20972;-60
2021/11/20 19:10:15;;;;;;;21.65;17.05;;;;;;;5.37;72.40;94633.69;1688677;83;21023;-59
2021/11/20 19:12:42;;;;;;;19.87;15.38;;;;;;;5.35;72.36;94625.16;1687541;83;21150;-56
2021/11/20 19:15:12;;;;;;;23.50;16.57;;;;;;;5.35;72.47;94627.88;1695557;83;21000;-58
2021/11/20 19:17:39;;;;;;;30.15;19.55;;;;;;;5.32;72.45;94630.86;1712732;83;20969;-58
2021/11/20 19:20:08;;;;;;;22.48;17.12;;;;;;;5.28;72.65;94626.05;1713148;83;20984;-59
2021/11/20 19:22:37;;;;;;;28.07;20.88;;;;;;;5.25;72.68;94629.61;1667479;83;21603;-58
2021/11/20 19:25:07;;;;;;;21.85;17.60;;;;;;;5.22;72.78;94627.54;1712561;83;21808;-58
2021/11/20 19:27:37;;;;;;;19.67;15.40;;;;;;;5.17;73.25;94626.05;1692908;83;21008;-59
2021/11/20 19:30:07;;;;;;;23.38;18.85;;;;;;;5.12;73.38;94631.23;1706987;83;21044;-59
2021/11/20 19:32:35;;;;;;;30.48;19.07;;;;;;;5.08;73.69;94631.86;1701579;83;22239;-58
2021/11/20 19:35:03;;;;;;;30.00;20.00;;;;;;;5.08;73.88;94624.46;1680237;83;21145;-58
2021/11/20 19:37:32;;;;;;;19.82;14.90;;;;;;;5.06;73.86;94624.69;1707218;83;21193;-59
2021/11/20 19:39:59;;;;;;;20.37;16.32;;;;;;;5.03;73.73;94627.67;1694289;83;20968;-61
2021/11/20 19:42:26;;;;;;;24.65;15.58;;;;;;;4.98;73.74;94628.13;1697359;83;21004;-58